Rhapsody Of The Seas — C6UA2 — position and weather

sailwx.info

Track history (hours):
 
Tides and Currents Weather Stations Pressure Air Temp Water Temp Dewpoint Dewpoint Depression Visibility Wind Speed Wind Dir Waves Ship Positions

Rhapsody Of The Seas

Last reported at 2015-Aug-01 19:17 UTC. Time now 2015-Aug-01 20:21 UTC.
Position N 40°16' E 013°18'.

Type: Passenger vessel. MMSI: 311805000.

Date/timePositionNaut miles runAvg speedWind from/ knotsBaromVisibWave heightAir tempDewpointWater temp
2015-Aug-01 19:17N 40°16' E 013°18'1622.1
2015-Aug-01 18:32N 40°05' E 013°34'2621.8
2015-Aug-01 17:20N 39°48' E 014°01'2121.7
2015-Aug-01 16:21N 39°35' E 014°22'1721.7
2015-Aug-01 15:33N 39°24' E 014°39'2421.8
2015-Aug-01 14:27N 39°09' E 015°04'2021.9
2015-Aug-01 13:33N 38°53' E 015°19'2222.2
2015-Aug-01 12:33N 38°33' E 015°32'1919.0
2015-Aug-01 11:34N 38°16' E 015°42'1515.3
2015-Aug-01 10:33N 38°02' E 015°35'1717.1
2015-Aug-01 09:34N 37°47' E 015°44'2221.2
2015-Aug-01 08:33N 37°38' E 016°09'38721.1
2015-Jul-31 14:15N 35°45' E 023°50'1518.8
2015-Jul-31 13:29N 35°42' E 024°08'1314.4
2015-Jul-31 12:32N 35°29' E 024°11'2 0.2
2015-Jul-31 03:17N 35°29' E 024°09'912.4
2015-Jul-31 02:31N 35°33' E 024°20'1414.2
2015-Jul-31 01:33N 35°38' E 024°35'1414.2
2015-Jul-31 00:33N 35°44' E 024°51'1414.2
2015-Jul-30 23:33N 35°51' E 025°07'1413.9
2015-Jul-30 22:33N 35°57' E 025°22'1414.2
2015-Jul-30 21:33N 36°04' E 025°37'1414.3
2015-Jul-30 20:33N 36°11' E 025°53'1414.4
2015-Jul-30 19:33N 36°17' E 026°09'1414.2
2015-Jul-30 18:33N 36°24' E 026°24'2114.2
2015-Jul-30 17:04N 36°33' E 026°48'714.4
2015-Jul-30 16:32N 36°36' E 026°56'2913.1
2015-Jul-30 14:19N 36°55' E 027°24'32 2.3
2015-Jul-30 00:33N 36°37' E 026°52'1110.9
2015-Jul-29 23:32N 36°45' E 026°43'1211.8
2015-Jul-29 22:33N 36°57' E 026°41'1111.1
2015-Jul-29 21:33N 37°06' E 026°34'1111.4
2015-Jul-29 20:33N 37°13' E 026°22'1111.5
2015-Jul-29 19:33N 37°24' E 026°17'1111.3
2015-Jul-29 18:32N 37°35' E 026°21'1211.9
2015-Jul-29 17:32N 37°45' E 026°28'1111.4
2015-Jul-29 16:33N 37°53' E 026°39'1311.9
2015-Jul-29 15:26N 37°53' E 026°55'7 0.5
2015-Jul-29 02:33N 37°53' E 027°04'1514.5
2015-Jul-29 01:30N 37°53' E 026°45'1313.4
2015-Jul-29 00:33N 37°49' E 026°29'2914.2
2015-Jul-28 22:33N 37°23' E 026°13'1414.1
2015-Jul-28 21:33N 37°11' E 026°04'1414.3
2015-Jul-28 20:34N 36°60' E 025°54'1413.9
2015-Jul-28 19:33N 36°49' E 025°42'1414.0
2015-Jul-28 18:33N 36°38' E 025°31'1313.2
2015-Jul-28 17:33N 36°28' E 025°21'4 4.2
2015-Jul-28 16:33N 36°25' E 025°25'0 0.0
2015-Jul-28 15:33N 36°25' E 025°25'0 0.0
2015-Jul-28 14:32N 36°25' E 025°25'0 0.0
2015-Jul-28 13:32N 36°25' E 025°25'0 0.0
2015-Jul-28 12:33N 36°25' E 025°25'0 0.4
2015-Jul-28 11:33N 36°25' E 025°25'0 0.1
2015-Jul-28 10:33N 36°25' E 025°25'0 0.1
2015-Jul-28 09:33N 36°25' E 025°25'6 5.9
2015-Jul-28 08:33N 36°23' E 025°18'2120.5
2015-Jul-28 07:33N 36°19' E 024°53'2120.7
2015-Jul-28 06:33N 36°16' E 024°28'2120.7
2015-Jul-28 05:33N 36°12' E 024°03'2120.6
2015-Jul-28 04:33N 36°10' E 023°37'40019.8
2015-Jul-27 08:21N 37°53' E 015°33'1518.8
2015-Jul-27 07:34N 38°08' E 015°34'1515.4
2015-Jul-27 06:33N 38°23' E 015°39'2019.8
2015-Jul-27 05:33N 38°40' E 015°28'11 0.2
2015-Jul-25 10:31N 38°50' E 015°21'2017.0
2015-Jul-25 09:20N 38°32' E 015°33'1317.1
2015-Jul-25 08:33N 38°20' E 015°41'1514.6
2015-Jul-25 07:33N 38°06' E 015°36'1716.6
2015-Jul-25 06:33N 37°49' E 015°37'1817.3
2015-Jul-25 05:31N 37°40' E 015°56'36110.9
2015-Jul-23 20:27N 36°33' E 023°22'5117.1
2015-Jul-23 17:29N 37°21' E 023°44'1516.3
2015-Jul-23 16:33N 37°36' E 023°43'1616.3
2015-Jul-23 15:34N 37°51' E 023°35'5 4.6
2015-Jul-23 14:26N 37°56' E 023°37'0 0.0
2015-Jul-23 13:29N 37°56' E 023°37'0 0.0
2015-Jul-23 12:32N 37°56' E 023°37'0 0.0
2015-Jul-23 11:29N 37°56' E 023°37'0 0.0
2015-Jul-23 10:32N 37°56' E 023°37'0 0.0
2015-Jul-23 09:32N 37°56' E 023°37'0 0.0
2015-Jul-23 08:29N 37°56' E 023°37'0 0.0
2015-Jul-23 07:29N 37°56' E 023°37'0 0.0
2015-Jul-23 06:32N 37°56' E 023°37'0 0.0
2015-Jul-23 05:29N 37°56' E 023°37'0 0.0
2015-Jul-23 04:29N 37°56' E 023°37'0 0.0
2015-Jul-23 03:29N 37°56' E 023°37'0 0.0
2015-Jul-23 02:33N 37°56' E 023°37'2 1.8
2015-Jul-23 01:33N 37°55' E 023°36'8 7.5
2015-Jul-23 00:33N 37°48' E 023°41'9 9.1
2015-Jul-22 23:33N 37°40' E 023°46'9 8.5
2015-Jul-22 22:33N 37°35' E 023°54'  
Track history (hours):
 
Tides and Currents Weather Stations Pressure Air Temp Water Temp Dewpoint Dewpoint Depression Visibility Wind Speed Wind Dir Waves Ship Positions

Rhapsody Of The Seas

Last reported at 2015-Aug-01 19:17 UTC. Time now 2015-Aug-01 20:21 UTC.
Position N 40°16' E 013°18'.

Type: Passenger vessel. MMSI: 311805000.

Date/timePositionNaut miles runAvg speedWind from/ knotsBaromVisibWave heightAir tempDewpointWater temp
2015-Aug-01 19:17N 40°16' E 013°18'1622.1
2015-Aug-01 18:32N 40°05' E 013°34'2621.8
2015-Aug-01 17:20N 39°48' E 014°01'2121.7
2015-Aug-01 16:21N 39°35' E 014°22'1721.7
2015-Aug-01 15:33N 39°24' E 014°39'2421.8
2015-Aug-01 14:27N 39°09' E 015°04'2021.9
2015-Aug-01 13:33N 38°53' E 015°19'2222.2
2015-Aug-01 12:33N 38°33' E 015°32'1919.0
2015-Aug-01 11:34N 38°16' E 015°42'1515.3
2015-Aug-01 10:33N 38°02' E 015°35'1717.1
2015-Aug-01 09:34N 37°47' E 015°44'2221.2
2015-Aug-01 08:33N 37°38' E 016°09'38721.1
2015-Jul-31 14:15N 35°45' E 023°50'1518.8
2015-Jul-31 13:29N 35°42' E 024°08'1314.4
2015-Jul-31 12:32N 35°29' E 024°11'2 0.2
2015-Jul-31 03:17N 35°29' E 024°09'912.4
2015-Jul-31 02:31N 35°33' E 024°20'1414.2
2015-Jul-31 01:33N 35°38' E 024°35'1414.2
2015-Jul-31 00:33N 35°44' E 024°51'1414.2
2015-Jul-30 23:33N 35°51' E 025°07'1413.9
2015-Jul-30 22:33N 35°57' E 025°22'1414.2
2015-Jul-30 21:33N 36°04' E 025°37'1414.3
2015-Jul-30 20:33N 36°11' E 025°53'1414.4
2015-Jul-30 19:33N 36°17' E 026°09'1414.2
2015-Jul-30 18:33N 36°24' E 026°24'2114.2
2015-Jul-30 17:04N 36°33' E 026°48'714.4
2015-Jul-30 16:32N 36°36' E 026°56'2913.1
2015-Jul-30 14:19N 36°55' E 027°24'32 2.3
2015-Jul-30 00:33N 36°37' E 026°52'1110.9
2015-Jul-29 23:32N 36°45' E 026°43'1211.8
2015-Jul-29 22:33N 36°57' E 026°41'1111.1
2015-Jul-29 21:33N 37°06' E 026°34'1111.4
2015-Jul-29 20:33N 37°13' E 026°22'1111.5
2015-Jul-29 19:33N 37°24' E 026°17'1111.3
2015-Jul-29 18:32N 37°35' E 026°21'1211.9
2015-Jul-29 17:32N 37°45' E 026°28'1111.4
2015-Jul-29 16:33N 37°53' E 026°39'1311.9
2015-Jul-29 15:26N 37°53' E 026°55'7 0.5
2015-Jul-29 02:33N 37°53' E 027°04'1514.5
2015-Jul-29 01:30N 37°53' E 026°45'1313.4
2015-Jul-29 00:33N 37°49' E 026°29'2914.2
2015-Jul-28 22:33N 37°23' E 026°13'1414.1
2015-Jul-28 21:33N 37°11' E 026°04'1414.3
2015-Jul-28 20:34N 36°60' E 025°54'1413.9
2015-Jul-28 19:33N 36°49' E 025°42'1414.0
2015-Jul-28 18:33N 36°38' E 025°31'1313.2
2015-Jul-28 17:33N 36°28' E 025°21'4 4.2
2015-Jul-28 16:33N 36°25' E 025°25'0 0.0
2015-Jul-28 15:33N 36°25' E 025°25'0 0.0
2015-Jul-28 14:32N 36°25' E 025°25'0 0.0
2015-Jul-28 13:32N 36°25' E 025°25'0 0.0
2015-Jul-28 12:33N 36°25' E 025°25'0 0.4
2015-Jul-28 11:33N 36°25' E 025°25'0 0.1
2015-Jul-28 10:33N 36°25' E 025°25'0 0.1
2015-Jul-28 09:33N 36°25' E 025°25'6 5.9
2015-Jul-28 08:33N 36°23' E 025°18'2120.5
2015-Jul-28 07:33N 36°19' E 024°53'2120.7
2015-Jul-28 06:33N 36°16' E 024°28'2120.7
2015-Jul-28 05:33N 36°12' E 024°03'2120.6
2015-Jul-28 04:33N 36°10' E 023°37'40019.8
2015-Jul-27 08:21N 37°53' E 015°33'1518.8
2015-Jul-27 07:34N 38°08' E 015°34'1515.4
2015-Jul-27 06:33N 38°23' E 015°39'2019.8
2015-Jul-27 05:33N 38°40' E 015°28'11 0.2
2015-Jul-25 10:31N 38°50' E 015°21'2017.0
2015-Jul-25 09:20N 38°32' E 015°33'1317.1
2015-Jul-25 08:33N 38°20' E 015°41'1514.6
2015-Jul-25 07:33N 38°06' E 015°36'1716.6
2015-Jul-25 06:33N 37°49' E 015°37'1817.3
2015-Jul-25 05:31N 37°40' E 015°56'36110.9
2015-Jul-23 20:27N 36°33' E 023°22'5117.1
2015-Jul-23 17:29N 37°21' E 023°44'1516.3
2015-Jul-23 16:33N 37°36' E 023°43'1616.3
2015-Jul-23 15:34N 37°51' E 023°35'5 4.6
2015-Jul-23 14:26N 37°56' E 023°37'0 0.0
2015-Jul-23 13:29N 37°56' E 023°37'0 0.0
2015-Jul-23 12:32N 37°56' E 023°37'0 0.0
2015-Jul-23 11:29N 37°56' E 023°37'0 0.0
2015-Jul-23 10:32N 37°56' E 023°37'0 0.0
2015-Jul-23 09:32N 37°56' E 023°37'0 0.0
2015-Jul-23 08:29N 37°56' E 023°37'0 0.0
2015-Jul-23 07:29N 37°56' E 023°37'0 0.0
2015-Jul-23 06:32N 37°56' E 023°37'0 0.0
2015-Jul-23 05:29N 37°56' E 023°37'0 0.0
2015-Jul-23 04:29N 37°56' E 023°37'0 0.0
2015-Jul-23 03:29N 37°56' E 023°37'0 0.0
2015-Jul-23 02:33N 37°56' E 023°37'2 1.8
2015-Jul-23 01:33N 37°55' E 023°36'8 7.5
2015-Jul-23 00:33N 37°48' E 023°41'9 9.1
2015-Jul-22 23:33N 37°40' E 023°46'9 8.5
2015-Jul-22 22:33N 37°35' E 023°54'  

Dump ship's entire track history